sensor_id;sensor_type;location;lat;lon;timestamp;temperature;humidity
4725;DHT22;2376;53.544;10.226;2022-10-16T00:01:31;16.80;99.90
4725;DHT22;2376;53.544;10.226;2022-10-16T00:03:59;16.70;99.90
4725;DHT22;2376;53.544;10.226;2022-10-16T00:06:26;16.80;99.90
4725;DHT22;2376;53.544;10.226;2022-10-16T00:08:54;16.70;99.90
4725;DHT22;2376;53.544;10.226;2022-10-16T00:11:23;16.70;99.90
4725;DHT22;2376;53.544;10.226;2022-10-16T00:13:53;16.70;99.90
4725;DHT22;2376;53.544;10.226;2022-10-16T00:16:20;16.60;99.90
4725;DHT22;2376;53.544;10.226;2022-10-16T00:18:47;16.70;99.90
4725;DHT22;2376;53.544;10.226;2022-10-16T00:21:16;16.60;99.90
4725;DHT22;2376;53.544;10.226;2022-10-16T00:23:43;16.60;99.90
4725;DHT22;2376;53.544;10.226;2022-10-16T00:26:12;16.60;99.90
4725;DHT22;2376;53.544;10.226;2022-10-16T00:28:41;16.60;99.90
4725;DHT22;2376;53.544;10.226;2022-10-16T00:31:09;16.60;99.90
4725;DHT22;2376;53.544;10.226;2022-10-16T00:33:38;16.60;99.90
4725;DHT22;2376;53.544;10.226;2022-10-16T00:36:06;16.50;99.90
4725;DHT22;2376;53.544;10.226;2022-10-16T00:38:33;16.50;99.90
4725;DHT22;2376;53.544;10.226;2022-10-16T00:41:00;16.50;99.90
4725;DHT22;2376;53.544;10.226;2022-10-16T00:43:36;16.50;99.90
4725;DHT22;2376;53.544;10.226;2022-10-16T00:46:11;16.40;99.90
4725;DHT22;2376;53.544;10.226;2022-10-16T00:48:38;16.30;99.90
4725;DHT22;2376;53.544;10.226;2022-10-16T00:51:06;16.40;99.90
4725;DHT22;2376;53.544;10.226;2022-10-16T00:53:34;16.30;99.90
4725;DHT22;2376;53.544;10.226;2022-10-16T00:56:01;16.40;99.90
4725;DHT22;2376;53.544;10.226;2022-10-16T00:58:28;16.30;99.90
4725;DHT22;2376;53.544;10.226;2022-10-16T01:00:55;16.20;99.90
4725;DHT22;2376;53.544;10.226;2022-10-16T01:03:27;16.20;99.90
4725;DHT22;2376;53.544;10.226;2022-10-16T01:06:01;16.20;99.90
4725;DHT22;2376;53.544;10.226;2022-10-16T01:08:36;16.20;99.90
4725;DHT22;2376;53.544;10.226;2022-10-16T01:11:10;16.20;99.90
4725;DHT22;2376;53.544;10.226;2022-10-16T01:13:42;16.10;99.90
4725;DHT22;2376;53.544;10.226;2022-10-16T01:16:14;16.10;99.90
4725;DHT22;2376;53.544;10.226;2022-10-16T01:18:46;16.10;99.90
4725;DHT22;2376;53.544;10.226;2022-10-16T01:21:20;16.10;99.90
4725;DHT22;2376;53.544;10.226;2022-10-16T01:23:54;16.10;99.90
4725;DHT22;2376;53.544;10.226;2022-10-16T01:26:34;16.00;99.90
4725;DHT22;2376;53.544;10.226;2022-10-16T01:29:07;16.00;99.90
4725;DHT22;2376;53.544;10.226;2022-10-16T01:31:37;15.90;99.90
4725;DHT22;2376;53.544;10.226;2022-10-16T01:34:10;15.90;99.90
4725;DHT22;2376;53.544;10.226;2022-10-16T01:36:41;15.70;99.90
4725;DHT22;2376;53.544;10.226;2022-10-16T01:39:10;15.80;99.90
4725;DHT22;2376;53.544;10.226;2022-10-16T01:41:40;15.80;99.90
4725;DHT22;2376;53.544;10.226;2022-10-16T01:44:11;15.80;99.90
4725;DHT22;2376;53.544;10.226;2022-10-16T01:46:42;15.80;99.90
4725;DHT22;2376;53.544;10.226;2022-10-16T01:49:10;15.90;99.90
4725;DHT22;2376;53.544;10.226;2022-10-16T01:51:39;15.90;99.90
4725;DHT22;2376;53.544;10.226;2022-10-16T01:54:08;15.90;99.90
4725;DHT22;2376;53.544;10.226;2022-10-16T01:56:37;15.90;99.90
4725;DHT22;2376;53.544;10.226;2022-10-16T01:59:07;15.90;99.90
4725;DHT22;2376;53.544;10.226;2022-10-16T02:01:39;15.90;99.90
4725;DHT22;2376;53.544;10.226;2022-10-16T02:04:11;15.90;99.90
4725;DHT22;2376;53.544;10.226;2022-10-16T02:06:40;15.90;99.90
4725;DHT22;2376;53.544;10.226;2022-10-16T02:09:06;15.80;99.90
4725;DHT22;2376;53.544;10.226;2022-10-16T02:11:33;15.90;99.90
4725;DHT22;2376;53.544;10.226;2022-10-16T02:14:03;15.90;99.90
4725;DHT22;2376;53.544;10.226;2022-10-16T02:16:34;15.80;99.90
4725;DHT22;2376;53.544;10.226;2022-10-16T02:19:03;15.70;99.90
4725;DHT22;2376;53.544;10.226;2022-10-16T02:21:33;15.60;99.90
4725;DHT22;2376;53.544;10.226;2022-10-16T02:24:05;15.50;99.90
4725;DHT22;2376;53.544;10.226;2022-10-16T02:26:36;15.40;99.90
4725;DHT22;2376;53.544;10.226;2022-10-16T02:29:08;15.50;99.90
4725;DHT22;2376;53.544;10.226;2022-10-16T02:31:41;15.40;99.90
4725;DHT22;2376;53.544;10.226;2022-10-16T02:34:11;15.40;99.90
4725;DHT22;2376;53.544;10.226;2022-10-16T02:36:39;15.40;99.90
4725;DHT22;2376;53.544;10.226;2022-10-16T02:39:07;15.40;99.90
4725;DHT22;2376;53.544;10.226;2022-10-16T02:41:34;15.40;99.90
4725;DHT22;2376;53.544;10.226;2022-10-16T02:44:01;15.40;99.90
4725;DHT22;2376;53.544;10.226;2022-10-16T02:46:28;15.30;99.90
4725;DHT22;2376;53.544;10.226;2022-10-16T02:48:54;15.40;99.90
4725;DHT22;2376;53.544;10.226;2022-10-16T02:51:22;15.30;99.90
4725;DHT22;2376;53.544;10.226;2022-10-16T02:53:49;15.30;99.90
4725;DHT22;2376;53.544;10.226;2022-10-16T02:56:16;15.30;99.90
4725;DHT22;2376;53.544;10.226;2022-10-16T02:58:43;15.30;99.90
4725;DHT22;2376;53.544;10.226;2022-10-16T03:01:10;15.30;99.90
4725;DHT22;2376;53.544;10.226;2022-10-16T03:03:38;15.30;99.90
4725;DHT22;2376;53.544;10.226;2022-10-16T03:06:05;15.30;99.90
4725;DHT22;2376;53.544;10.226;2022-10-16T03:08:33;15.20;99.90
4725;DHT22;2376;53.544;10.226;2022-10-16T03:11:00;15.20;99.90
4725;DHT22;2376;53.544;10.226;2022-10-16T03:13:27;15.30;99.90
4725;DHT22;2376;53.544;10.226;2022-10-16T03:15:53;15.20;99.90
4725;DHT22;2376;53.544;10.226;2022-10-16T03:18:20;15.30;99.90
4725;DHT22;2376;53.544;10.226;2022-10-16T03:20:47;15.30;99.90
4725;DHT22;2376;53.544;10.226;2022-10-16T03:23:13;15.30;99.90
4725;DHT22;2376;53.544;10.226;2022-10-16T03:25:42;15.30;99.90
4725;DHT22;2376;53.544;10.226;2022-10-16T03:28:08;15.30;99.90
4725;DHT22;2376;53.544;10.226;2022-10-16T03:30:35;15.30;99.90
4725;DHT22;2376;53.544;10.226;2022-10-16T03:33:02;15.30;99.90
4725;DHT22;2376;53.544;10.226;2022-10-16T03:35:29;15.20;99.90
4725;DHT22;2376;53.544;10.226;2022-10-16T03:37:55;15.20;99.90
4725;DHT22;2376;53.544;10.226;2022-10-16T03:40:22;15.20;99.90
4725;DHT22;2376;53.544;10.226;2022-10-16T03:42:51;15.30;99.90
4725;DHT22;2376;53.544;10.226;2022-10-16T03:45:19;15.20;99.90
4725;DHT22;2376;53.544;10.226;2022-10-16T03:47:46;15.20;99.90
4725;DHT22;2376;53.544;10.226;2022-10-16T03:50:13;15.20;99.90
4725;DHT22;2376;53.544;10.226;2022-10-16T03:52:40;15.10;99.90
4725;DHT22;2376;53.544;10.226;2022-10-16T03:55:07;15.10;99.90
4725;DHT22;2376;53.544;10.226;2022-10-16T03:57:34;15.10;99.90
4725;DHT22;2376;53.544;10.226;2022-10-16T04:00:03;15.10;99.90
4725;DHT22;2376;53.544;10.226;2022-10-16T04:02:29;15.00;99.90
4725;DHT22;2376;53.544;10.226;2022-10-16T04:04:56;15.00;99.90
4725;DHT22;2376;53.544;10.226;2022-10-16T04:07:23;15.00;99.90
4725;DHT22;2376;53.544;10.226;2022-10-16T04:09:50;15.00;99.90
4725;DHT22;2376;53.544;10.226;2022-10-16T04:12:17;15.10;99.90
4725;DHT22;2376;53.544;10.226;2022-10-16T04:14:44;14.90;99.90
4725;DHT22;2376;53.544;10.226;2022-10-16T04:17:12;14.90;99.90
4725;DHT22;2376;53.544;10.226;2022-10-16T04:19:39;14.90;99.90
4725;DHT22;2376;53.544;10.226;2022-10-16T04:22:05;14.90;99.90
4725;DHT22;2376;53.544;10.226;2022-10-16T04:24:32;14.90;99.90
4725;DHT22;2376;53.544;10.226;2022-10-16T04:26:59;14.80;99.90
4725;DHT22;2376;53.544;10.226;2022-10-16T04:29:25;14.90;99.90
4725;DHT22;2376;53.544;10.226;2022-10-16T04:31:52;14.80;99.90
4725;DHT22;2376;53.544;10.226;2022-10-16T04:34:20;14.80;99.90
4725;DHT22;2376;53.544;10.226;2022-10-16T04:36:47;14.80;99.90
4725;DHT22;2376;53.544;10.226;2022-10-16T04:39:15;14.80;99.90
4725;DHT22;2376;53.544;10.226;2022-10-16T04:41:42;14.80;99.90
4725;DHT22;2376;53.544;10.226;2022-10-16T04:44:08;14.70;99.90
4725;DHT22;2376;53.544;10.226;2022-10-16T04:46:35;14.70;99.90
4725;DHT22;2376;53.544;10.226;2022-10-16T04:49:02;14.70;99.90
4725;DHT22;2376;53.544;10.226;2022-10-16T04:51:30;14.70;99.90
4725;DHT22;2376;53.544;10.226;2022-10-16T04:53:57;14.60;99.90
4725;DHT22;2376;53.544;10.226;2022-10-16T04:56:24;14.70;99.90
4725;DHT22;2376;53.544;10.226;2022-10-16T04:58:50;14.60;99.90
4725;DHT22;2376;53.544;10.226;2022-10-16T05:01:17;14.60;99.90
4725;DHT22;2376;53.544;10.226;2022-10-16T05:03:44;14.70;99.90
4725;DHT22;2376;53.544;10.226;2022-10-16T05:06:11;14.60;99.90
4725;DHT22;2376;53.544;10.226;2022-10-16T05:08:39;14.60;99.90
4725;DHT22;2376;53.544;10.226;2022-10-16T05:11:06;14.60;99.90
4725;DHT22;2376;53.544;10.226;2022-10-16T05:13:32;14.60;99.90
4725;DHT22;2376;53.544;10.226;2022-10-16T05:15:59;14.60;99.90
4725;DHT22;2376;53.544;10.226;2022-10-16T05:18:26;14.70;99.90
4725;DHT22;2376;53.544;10.226;2022-10-16T05:20:52;14.60;99.90
4725;DHT22;2376;53.544;10.226;2022-10-16T05:23:19;14.60;99.90
4725;DHT22;2376;53.544;10.226;2022-10-16T05:25:53;14.60;99.90
4725;DHT22;2376;53.544;10.226;2022-10-16T05:28:20;14.50;99.90
4725;DHT22;2376;53.544;10.226;2022-10-16T05:30:47;14.50;99.90
4725;DHT22;2376;53.544;10.226;2022-10-16T05:33:14;14.50;99.90
4725;DHT22;2376;53.544;10.226;2022-10-16T05:35:41;14.50;99.90
4725;DHT22;2376;53.544;10.226;2022-10-16T05:38:07;14.50;99.90
4725;DHT22;2376;53.544;10.226;2022-10-16T05:40:34;14.50;99.90
4725;DHT22;2376;53.544;10.226;2022-10-16T05:43:02;14.60;99.90
4725;DHT22;2376;53.544;10.226;2022-10-16T05:45:29;14.60;99.90
4725;DHT22;2376;53.544;10.226;2022-10-16T05:47:56;14.50;99.90
4725;DHT22;2376;53.544;10.226;2022-10-16T05:50:22;14.50;99.90
4725;DHT22;2376;53.544;10.226;2022-10-16T05:52:49;14.50;99.90
4725;DHT22;2376;53.544;10.226;2022-10-16T05:55:16;14.40;99.90
4725;DHT22;2376;53.544;10.226;2022-10-16T05:57:43;14.50;99.90
4725;DHT22;2376;53.544;10.226;2022-10-16T06:00:12;14.40;99.90
4725;DHT22;2376;53.544;10.226;2022-10-16T06:02:38;14.50;99.90
4725;DHT22;2376;53.544;10.226;2022-10-16T06:05:06;14.50;99.90
4725;DHT22;2376;53.544;10.226;2022-10-16T06:07:34;14.50;99.90
4725;DHT22;2376;53.544;10.226;2022-10-16T06:10:02;14.50;99.90
4725;DHT22;2376;53.544;10.226;2022-10-16T06:12:29;14.60;99.90
4725;DHT22;2376;53.544;10.226;2022-10-16T06:14:56;14.60;99.90
4725;DHT22;2376;53.544;10.226;2022-10-16T06:17:24;14.60;99.90
4725;DHT22;2376;53.544;10.226;2022-10-16T06:19:51;14.60;99.90
4725;DHT22;2376;53.544;10.226;2022-10-16T06:22:18;14.60;99.90
4725;DHT22;2376;53.544;10.226;2022-10-16T06:24:45;14.50;99.90
4725;DHT22;2376;53.544;10.226;2022-10-16T06:27:13;14.60;99.90
4725;DHT22;2376;53.544;10.226;2022-10-16T06:29:39;14.60;99.90
4725;DHT22;2376;53.544;10.226;2022-10-16T06:32:06;14.60;99.90
4725;DHT22;2376;53.544;10.226;2022-10-16T06:34:34;14.60;99.90
4725;DHT22;2376;53.544;10.226;2022-10-16T06:37:01;14.60;99.90
4725;DHT22;2376;53.544;10.226;2022-10-16T06:39:28;14.50;99.90
4725;DHT22;2376;53.544;10.226;2022-10-16T06:41:54;14.60;99.90
4725;DHT22;2376;53.544;10.226;2022-10-16T06:44:21;14.60;99.90
4725;DHT22;2376;53.544;10.226;2022-10-16T06:46:48;14.50;99.90
4725;DHT22;2376;53.544;10.226;2022-10-16T06:49:15;14.50;99.90
4725;DHT22;2376;53.544;10.226;2022-10-16T06:51:48;14.50;99.90
4725;DHT22;2376;53.544;10.226;2022-10-16T06:54:15;14.50;99.90
4725;DHT22;2376;53.544;10.226;2022-10-16T06:56:43;14.50;99.90
4725;DHT22;2376;53.544;10.226;2022-10-16T06:59:10;14.50;99.90
4725;DHT22;2376;53.544;10.226;2022-10-16T07:01:36;14.50;99.90
4725;DHT22;2376;53.544;10.226;2022-10-16T07:04:03;14.50;99.90
4725;DHT22;2376;53.544;10.226;2022-10-16T07:06:33;14.60;99.90
4725;DHT22;2376;53.544;10.226;2022-10-16T07:09:03;14.50;99.90
4725;DHT22;2376;53.544;10.226;2022-10-16T07:11:30;14.60;99.90
4725;DHT22;2376;53.544;10.226;2022-10-16T07:13:57;14.50;99.90
4725;DHT22;2376;53.544;10.226;2022-10-16T07:16:26;14.50;99.90
4725;DHT22;2376;53.544;10.226;2022-10-16T07:18:53;14.50;99.90
4725;DHT22;2376;53.544;10.226;2022-10-16T07:21:24;14.50;99.90
4725;DHT22;2376;53.544;10.226;2022-10-16T07:23:52;14.60;99.90
4725;DHT22;2376;53.544;10.226;2022-10-16T07:26:20;14.60;99.90
4725;DHT22;2376;53.544;10.226;2022-10-16T07:28:47;14.70;99.90
4725;DHT22;2376;53.544;10.226;2022-10-16T07:31:15;14.70;99.90
4725;DHT22;2376;53.544;10.226;2022-10-16T07:33:43;14.60;99.90
4725;DHT22;2376;53.544;10.226;2022-10-16T07:36:11;14.70;99.90
4725;DHT22;2376;53.544;10.226;2022-10-16T07:38:37;14.70;99.90
4725;DHT22;2376;53.544;10.226;2022-10-16T07:41:06;14.90;99.90
4725;DHT22;2376;53.544;10.226;2022-10-16T07:43:34;14.80;99.90
4725;DHT22;2376;53.544;10.226;2022-10-16T07:46:01;14.90;99.90
4725;DHT22;2376;53.544;10.226;2022-10-16T07:48:30;15.00;99.90
4725;DHT22;2376;53.544;10.226;2022-10-16T07:50:57;15.00;99.90
4725;DHT22;2376;53.544;10.226;2022-10-16T07:53:25;15.00;99.90
4725;DHT22;2376;53.544;10.226;2022-10-16T07:55:52;15.00;99.90
4725;DHT22;2376;53.544;10.226;2022-10-16T07:58:23;15.00;99.90
4725;DHT22;2376;53.544;10.226;2022-10-16T08:00:51;15.20;99.90
4725;DHT22;2376;53.544;10.226;2022-10-16T08:03:17;15.20;99.90
4725;DHT22;2376;53.544;10.226;2022-10-16T08:05:44;15.10;99.90
4725;DHT22;2376;53.544;10.226;2022-10-16T08:08:13;15.20;99.90
4725;DHT22;2376;53.544;10.226;2022-10-16T08:10:41;15.20;99.90
4725;DHT22;2376;53.544;10.226;2022-10-16T08:13:07;15.30;99.90
4725;DHT22;2376;53.544;10.226;2022-10-16T08:15:34;15.40;99.90
4725;DHT22;2376;53.544;10.226;2022-10-16T08:18:04;15.40;99.90
4725;DHT22;2376;53.544;10.226;2022-10-16T08:20:32;15.40;99.90
4725;DHT22;2376;53.544;10.226;2022-10-16T08:22:59;15.30;99.90
4725;DHT22;2376;53.544;10.226;2022-10-16T08:25:26;15.50;99.90
4725;DHT22;2376;53.544;10.226;2022-10-16T08:27:53;15.40;99.90
4725;DHT22;2376;53.544;10.226;2022-10-16T08:30:21;15.40;99.90
4725;DHT22;2376;53.544;10.226;2022-10-16T08:32:49;15.30;99.90
4725;DHT22;2376;53.544;10.226;2022-10-16T08:35:17;15.30;99.90
4725;DHT22;2376;53.544;10.226;2022-10-16T08:37:44;15.40;99.90
4725;DHT22;2376;53.544;10.226;2022-10-16T08:40:17;15.40;99.90
4725;DHT22;2376;53.544;10.226;2022-10-16T08:46:03;15.70;99.90
4725;DHT22;2376;53.544;10.226;2022-10-16T08:48:38;15.70;99.90
4725;DHT22;2376;53.544;10.226;2022-10-16T08:51:10;15.70;99.90
4725;DHT22;2376;53.544;10.226;2022-10-16T08:53:46;15.80;99.90
4725;DHT22;2376;53.544;10.226;2022-10-16T08:56:15;15.80;99.90
4725;DHT22;2376;53.544;10.226;2022-10-16T08:58:45;15.90;99.90
4725;DHT22;2376;53.544;10.226;2022-10-16T09:01:14;16.00;99.90
4725;DHT22;2376;53.544;10.226;2022-10-16T09:03:55;16.00;99.90
4725;DHT22;2376;53.544;10.226;2022-10-16T09:06:37;16.10;99.90
4725;DHT22;2376;53.544;10.226;2022-10-16T09:12:14;16.40;99.90
4725;DHT22;2376;53.544;10.226;2022-10-16T09:14:58;16.50;99.90
4725;DHT22;2376;53.544;10.226;2022-10-16T09:17:36;16.40;99.90
4725;DHT22;2376;53.544;10.226;2022-10-16T09:20:14;16.40;99.90
4725;DHT22;2376;53.544;10.226;2022-10-16T09:22:45;16.30;99.90
4725;DHT22;2376;53.544;10.226;2022-10-16T09:25:14;16.40;99.90
4725;DHT22;2376;53.544;10.226;2022-10-16T09:27:42;16.50;99.90
4725;DHT22;2376;53.544;10.226;2022-10-16T09:30:12;16.60;99.90
4725;DHT22;2376;53.544;10.226;2022-10-16T09:32:40;16.60;99.90
4725;DHT22;2376;53.544;10.226;2022-10-16T09:35:13;16.60;99.90
4725;DHT22;2376;53.544;10.226;2022-10-16T09:37:41;16.50;99.90
4725;DHT22;2376;53.544;10.226;2022-10-16T09:40:23;16.40;99.90
4725;DHT22;2376;53.544;10.226;2022-10-16T09:43:01;16.50;99.90
4725;DHT22;2376;53.544;10.226;2022-10-16T09:45:29;16.70;99.90
4725;DHT22;2376;53.544;10.226;2022-10-16T09:47:56;16.80;99.90
4725;DHT22;2376;53.544;10.226;2022-10-16T09:50:25;16.90;99.90
4725;DHT22;2376;53.544;10.226;2022-10-16T09:53:04;17.20;99.90
4725;DHT22;2376;53.544;10.226;2022-10-16T09:55:32;17.20;99.90
4725;DHT22;2376;53.544;10.226;2022-10-16T09:57:59;17.20;99.90
4725;DHT22;2376;53.544;10.226;2022-10-16T10:00:26;17.40;99.90
4725;DHT22;2376;53.544;10.226;2022-10-16T10:02:53;17.50;99.90
4725;DHT22;2376;53.544;10.226;2022-10-16T10:05:22;17.50;99.90
4725;DHT22;2376;53.544;10.226;2022-10-16T10:07:55;17.50;99.90
4725;DHT22;2376;53.544;10.226;2022-10-16T10:10:24;17.50;99.90
4725;DHT22;2376;53.544;10.226;2022-10-16T10:12:53;17.40;99.90
4725;DHT22;2376;53.544;10.226;2022-10-16T10:15:21;17.10;99.90
4725;DHT22;2376;53.544;10.226;2022-10-16T10:17:51;17.30;99.90
4725;DHT22;2376;53.544;10.226;2022-10-16T10:20:26;17.30;99.90
4725;DHT22;2376;53.544;10.226;2022-10-16T10:22:54;17.50;99.90
4725;DHT22;2376;53.544;10.226;2022-10-16T10:25:31;17.60;99.90
4725;DHT22;2376;53.544;10.226;2022-10-16T10:28:31;17.60;99.90
4725;DHT22;2376;53.544;10.226;2022-10-16T10:31:03;17.70;99.90
4725;DHT22;2376;53.544;10.226;2022-10-16T10:33:39;17.70;99.90
4725;DHT22;2376;53.544;10.226;2022-10-16T10:36:28;17.80;99.90
4725;DHT22;2376;53.544;10.226;2022-10-16T10:38:59;17.60;99.90
4725;DHT22;2376;53.544;10.226;2022-10-16T10:41:57;17.80;99.90
4725;DHT22;2376;53.544;10.226;2022-10-16T10:47:27;17.80;99.90
4725;DHT22;2376;53.544;10.226;2022-10-16T10:50:06;17.90;99.90
4725;DHT22;2376;53.544;10.226;2022-10-16T10:52:45;18.00;99.90
4725;DHT22;2376;53.544;10.226;2022-10-16T10:55:24;18.20;99.90
4725;DHT22;2376;53.544;10.226;2022-10-16T10:58:18;18.20;99.90
4725;DHT22;2376;53.544;10.226;2022-10-16T11:00:55;18.10;99.90
4725;DHT22;2376;53.544;10.226;2022-10-16T11:03:35;18.20;99.90
4725;DHT22;2376;53.544;10.226;2022-10-16T11:06:07;18.20;99.90
4725;DHT22;2376;53.544;10.226;2022-10-16T11:08:40;18.40;99.90
4725;DHT22;2376;53.544;10.226;2022-10-16T11:11:11;18.40;99.90
4725;DHT22;2376;53.544;10.226;2022-10-16T11:13:45;18.50;99.90
4725;DHT22;2376;53.544;10.226;2022-10-16T11:16:21;18.60;99.90
4725;DHT22;2376;53.544;10.226;2022-10-16T11:18:54;18.50;99.90
4725;DHT22;2376;53.544;10.226;2022-10-16T11:21:23;18.50;99.90
4725;DHT22;2376;53.544;10.226;2022-10-16T11:23:53;18.60;99.90
4725;DHT22;2376;53.544;10.226;2022-10-16T11:26:23;18.70;99.90
4725;DHT22;2376;53.544;10.226;2022-10-16T11:28:53;18.90;99.90
4725;DHT22;2376;53.544;10.226;2022-10-16T11:31:28;18.80;99.90
4725;DHT22;2376;53.544;10.226;2022-10-16T11:34:02;18.80;99.90
4725;DHT22;2376;53.544;10.226;2022-10-16T11:36:34;19.00;99.90
4725;DHT22;2376;53.544;10.226;2022-10-16T11:39:10;18.80;99.90
4725;DHT22;2376;53.544;10.226;2022-10-16T11:41:43;19.00;99.90
4725;DHT22;2376;53.544;10.226;2022-10-16T11:44:23;19.10;99.90
4725;DHT22;2376;53.544;10.226;2022-10-16T11:47:05;19.30;99.90
4725;DHT22;2376;53.544;10.226;2022-10-16T11:49:36;19.40;99.90
4725;DHT22;2376;53.544;10.226;2022-10-16T11:52:07;19.40;99.90
4725;DHT22;2376;53.544;10.226;2022-10-16T11:54:44;19.40;99.90
4725;DHT22;2376;53.544;10.226;2022-10-16T11:57:14;19.40;99.90
4725;DHT22;2376;53.544;10.226;2022-10-16T11:59:45;19.50;99.90
4725;DHT22;2376;53.544;10.226;2022-10-16T12:02:33;19.70;99.90
4725;DHT22;2376;53.544;10.226;2022-10-16T12:05:11;19.70;99.90
4725;DHT22;2376;53.544;10.226;2022-10-16T12:07:44;19.60;99.90
4725;DHT22;2376;53.544;10.226;2022-10-16T12:10:20;19.60;99.90
4725;DHT22;2376;53.544;10.226;2022-10-16T12:12:47;19.60;99.90
4725;DHT22;2376;53.544;10.226;2022-10-16T12:15:21;19.70;99.90
4725;DHT22;2376;53.544;10.226;2022-10-16T12:17:50;19.60;99.90
4725;DHT22;2376;53.544;10.226;2022-10-16T12:20:27;19.60;99.90
4725;DHT22;2376;53.544;10.226;2022-10-16T12:22:57;19.70;99.90
4725;DHT22;2376;53.544;10.226;2022-10-16T12:25:27;19.60;99.90
4725;DHT22;2376;53.544;10.226;2022-10-16T12:27:57;19.60;99.90
4725;DHT22;2376;53.544;10.226;2022-10-16T12:30:26;19.50;99.90
4725;DHT22;2376;53.544;10.226;2022-10-16T12:32:56;19.50;99.90
4725;DHT22;2376;53.544;10.226;2022-10-16T12:35:25;19.60;99.90
4725;DHT22;2376;53.544;10.226;2022-10-16T12:37:52;19.70;99.90
4725;DHT22;2376;53.544;10.226;2022-10-16T12:40:28;19.70;99.90
4725;DHT22;2376;53.544;10.226;2022-10-16T12:42:56;19.70;99.90
4725;DHT22;2376;53.544;10.226;2022-10-16T12:45:28;19.80;99.90
4725;DHT22;2376;53.544;10.226;2022-10-16T12:47:58;19.80;99.90
4725;DHT22;2376;53.544;10.226;2022-10-16T12:50:30;19.80;99.90
4725;DHT22;2376;53.544;10.226;2022-10-16T12:52:58;19.80;99.90
4725;DHT22;2376;53.544;10.226;2022-10-16T12:55:25;20.00;99.90
4725;DHT22;2376;53.544;10.226;2022-10-16T12:58:17;20.00;99.90
4725;DHT22;2376;53.544;10.226;2022-10-16T13:00:53;20.10;99.90
4725;DHT22;2376;53.544;10.226;2022-10-16T13:03:46;20.10;99.90
4725;DHT22;2376;53.544;10.226;2022-10-16T13:06:24;20.10;99.90
4725;DHT22;2376;53.544;10.226;2022-10-16T13:09:06;20.40;99.90
4725;DHT22;2376;53.544;10.226;2022-10-16T13:11:49;20.60;99.90
4725;DHT22;2376;53.544;10.226;2022-10-16T13:14:30;20.50;99.90
4725;DHT22;2376;53.544;10.226;2022-10-16T13:17:05;20.50;99.90
4725;DHT22;2376;53.544;10.226;2022-10-16T13:19:43;20.30;99.90
4725;DHT22;2376;53.544;10.226;2022-10-16T13:22:17;20.40;99.90
4725;DHT22;2376;53.544;10.226;2022-10-16T13:24:57;20.40;99.90
4725;DHT22;2376;53.544;10.226;2022-10-16T13:27:35;20.30;99.90
4725;DHT22;2376;53.544;10.226;2022-10-16T13:30:12;20.10;99.90
4725;DHT22;2376;53.544;10.226;2022-10-16T13:32:40;20.00;99.90
4725;DHT22;2376;53.544;10.226;2022-10-16T13:35:21;20.00;99.90
4725;DHT22;2376;53.544;10.226;2022-10-16T13:37:48;19.90;99.90
4725;DHT22;2376;53.544;10.226;2022-10-16T13:40:19;20.00;99.90
4725;DHT22;2376;53.544;10.226;2022-10-16T13:42:46;19.90;99.90
4725;DHT22;2376;53.544;10.226;2022-10-16T13:45:20;19.90;99.90
4725;DHT22;2376;53.544;10.226;2022-10-16T13:47:47;20.00;99.90
4725;DHT22;2376;53.544;10.226;2022-10-16T13:50:16;19.90;99.90
4725;DHT22;2376;53.544;10.226;2022-10-16T13:52:44;19.90;99.90
4725;DHT22;2376;53.544;10.226;2022-10-16T13:55:12;19.90;99.90
4725;DHT22;2376;53.544;10.226;2022-10-16T13:57:39;19.90;99.90
4725;DHT22;2376;53.544;10.226;2022-10-16T14:00:18;19.90;99.90
4725;DHT22;2376;53.544;10.226;2022-10-16T14:02:50;19.90;99.90
4725;DHT22;2376;53.544;10.226;2022-10-16T14:05:17;19.90;99.90
4725;DHT22;2376;53.544;10.226;2022-10-16T14:07:49;19.80;99.90
4725;DHT22;2376;53.544;10.226;2022-10-16T14:10:23;19.90;99.90
4725;DHT22;2376;53.544;10.226;2022-10-16T14:12:58;20.00;99.90
4725;DHT22;2376;53.544;10.226;2022-10-16T14:15:26;20.00;99.90
4725;DHT22;2376;53.544;10.226;2022-10-16T14:17:53;20.00;99.90
4725;DHT22;2376;53.544;10.226;2022-10-16T14:20:24;20.00;99.90
4725;DHT22;2376;53.544;10.226;2022-10-16T14:23:00;20.10;99.90
4725;DHT22;2376;53.544;10.226;2022-10-16T14:25:29;20.00;99.90
4725;DHT22;2376;53.544;10.226;2022-10-16T14:27:58;19.90;99.90
4725;DHT22;2376;53.544;10.226;2022-10-16T14:30:26;20.00;99.90
4725;DHT22;2376;53.544;10.226;2022-10-16T14:32:55;19.90;99.90
4725;DHT22;2376;53.544;10.226;2022-10-16T14:35:25;19.80;99.90
4725;DHT22;2376;53.544;10.226;2022-10-16T14:37:53;19.90;99.90
4725;DHT22;2376;53.544;10.226;2022-10-16T14:40:23;19.90;99.90
4725;DHT22;2376;53.544;10.226;2022-10-16T14:42:51;19.90;99.90
4725;DHT22;2376;53.544;10.226;2022-10-16T14:45:20;19.80;99.90
4725;DHT22;2376;53.544;10.226;2022-10-16T14:47:49;20.00;99.90
4725;DHT22;2376;53.544;10.226;2022-10-16T14:50:16;19.90;99.90
4725;DHT22;2376;53.544;10.226;2022-10-16T14:52:43;19.70;99.90
4725;DHT22;2376;53.544;10.226;2022-10-16T14:55:10;19.60;99.90
4725;DHT22;2376;53.544;10.226;2022-10-16T14:57:39;19.60;99.90
4725;DHT22;2376;53.544;10.226;2022-10-16T15:00:13;19.70;99.90
4725;DHT22;2376;53.544;10.226;2022-10-16T15:02:41;19.50;99.90
4725;DHT22;2376;53.544;10.226;2022-10-16T15:05:13;19.50;99.90
4725;DHT22;2376;53.544;10.226;2022-10-16T15:07:40;19.50;99.90
4725;DHT22;2376;53.544;10.226;2022-10-16T15:10:07;19.50;99.90
4725;DHT22;2376;53.544;10.226;2022-10-16T15:12:34;19.40;99.90
4725;DHT22;2376;53.544;10.226;2022-10-16T15:15:08;19.50;99.90
4725;DHT22;2376;53.544;10.226;2022-10-16T15:17:42;19.40;99.90
4725;DHT22;2376;53.544;10.226;2022-10-16T15:20:09;19.50;99.90
4725;DHT22;2376;53.544;10.226;2022-10-16T15:22:35;19.50;99.90
4725;DHT22;2376;53.544;10.226;2022-10-16T15:25:08;19.60;99.90
4725;DHT22;2376;53.544;10.226;2022-10-16T15:27:36;19.40;99.90
4725;DHT22;2376;53.544;10.226;2022-10-16T15:30:07;19.50;99.90
4725;DHT22;2376;53.544;10.226;2022-10-16T15:32:34;19.50;99.90
4725;DHT22;2376;53.544;10.226;2022-10-16T15:35:00;19.40;99.90
4725;DHT22;2376;53.544;10.226;2022-10-16T15:37:27;19.40;99.90
4725;DHT22;2376;53.544;10.226;2022-10-16T15:39:54;19.40;99.90
4725;DHT22;2376;53.544;10.226;2022-10-16T15:42:20;19.50;99.90
4725;DHT22;2376;53.544;10.226;2022-10-16T15:44:47;19.40;99.90
4725;DHT22;2376;53.544;10.226;2022-10-16T15:47:17;19.30;99.90
4725;DHT22;2376;53.544;10.226;2022-10-16T15:49:44;19.30;99.90
4725;DHT22;2376;53.544;10.226;2022-10-16T15:52:11;19.20;99.90
4725;DHT22;2376;53.544;10.226;2022-10-16T15:54:38;19.20;99.90
4725;DHT22;2376;53.544;10.226;2022-10-16T15:57:04;19.20;99.90
4725;DHT22;2376;53.544;10.226;2022-10-16T15:59:31;19.20;99.90
4725;DHT22;2376;53.544;10.226;2022-10-16T16:01:58;19.20;99.90
4725;DHT22;2376;53.544;10.226;2022-10-16T16:04:26;19.20;99.90
4725;DHT22;2376;53.544;10.226;2022-10-16T16:06:52;19.20;99.90
4725;DHT22;2376;53.544;10.226;2022-10-16T16:09:19;19.10;99.90
4725;DHT22;2376;53.544;10.226;2022-10-16T16:11:46;19.10;99.90